Time;durP1;ratioP1;P1;durP2;ratioP2;P2;SDS_P1;SDS_P2;PMS_P1;PMS_P2;Temp;Humidity;BMP_temperature;BMP_pressure;BME280_temperature;BME280_humidity;BME280_pressure;Samples;Min_cycle;Max_cycle;Signal;HPM_P1;HPM_P2
2022/06/07 00:00:16;;;;;;;15.38;8.02;;;;;;;11.35;100.00;101118.72;2070908;28;43959;-68
2022/06/07 00:01:18;;;;;;;12.15;7.38;;;;;;;11.34;100.00;101120.53;2064241;28;38413;-68
2022/06/07 00:02:25;;;;;;;13.75;7.60;;;;;;;11.33;100.00;101124.09;2072108;28;37346;-67
2022/06/07 00:03:27;;;;;;;12.98;7.65;;;;;;;11.31;100.00;101114.34;2071105;28;40040;-69
2022/06/07 00:04:29;;;;;;;13.63;8.10;;;;;;;11.31;100.00;101120.59;2064706;28;39654;-68
2022/06/07 00:05:32;;;;;;;13.20;7.65;;;;;;;11.33;100.00;101116.06;2071615;28;42127;-68
2022/06/07 00:06:33;;;;;;;10.52;7.65;;;;;;;11.32;100.00;101118.78;2071668;28;40597;-68
2022/06/07 00:07:35;;;;;;;10.32;7.32;;;;;;;11.32;100.00;101110.72;2071906;28;36641;-69
2022/06/07 00:08:37;;;;;;;11.20;7.53;;;;;;;11.30;100.00;101105.41;2071595;28;40214;-68
2022/06/07 00:09:39;;;;;;;9.27;7.53;;;;;;;11.31;100.00;101112.53;2064551;28;35089;-69
2022/06/07 00:10:40;;;;;;;11.63;7.43;;;;;;;11.30;100.00;101105.41;2064346;28;38873;-69
2022/06/07 00:11:42;;;;;;;9.80;7.18;;;;;;;11.29;100.00;101109.03;2063776;28;47079;-69
2022/06/07 00:12:44;;;;;;;16.92;7.97;;;;;;;11.27;100.00;101103.69;2064938;28;28242;-69
2022/06/07 00:13:47;;;;;;;12.10;7.45;;;;;;;11.29;100.00;101106.34;2063975;28;39402;-69
2022/06/07 00:14:49;;;;;;;10.80;7.55;;;;;;;11.28;100.00;101110.78;2064216;28;42915;-69
2022/06/07 00:15:51;;;;;;;13.65;7.70;;;;;;;11.29;100.00;101100.97;2064279;28;39113;-69
2022/06/07 00:16:54;;;;;;;12.38;7.68;;;;;;;11.27;100.00;101094.78;2063717;28;44263;-69
2022/06/07 00:17:56;;;;;;;14.23;8.18;;;;;;;11.26;100.00;101095.69;2064370;28;35990;-69
2022/06/07 00:18:58;;;;;;;12.60;7.75;;;;;;;11.26;100.00;101103.72;2071764;28;38105;-69
2022/06/07 00:20:05;;;;;;;12.02;7.95;;;;;;;11.26;100.00;101098.34;2071705;28;20165;-69
2022/06/07 00:21:07;;;;;;;12.20;7.78;;;;;;;11.25;100.00;101093.91;2071968;28;39158;-69
2022/06/07 00:22:09;;;;;;;13.98;8.15;;;;;;;11.25;100.00;101093.91;2071146;28;43531;-69
2022/06/07 00:23:15;;;;;;;12.90;7.95;;;;;;;11.25;100.00;101097.50;2072230;28;21944;-69
2022/06/07 00:24:17;;;;;;;13.15;8.23;;;;;;;11.24;100.00;101089.47;2070946;28;40466;-69
2022/06/07 00:25:19;;;;;;;10.85;7.40;;;;;;;11.23;100.00;101087.69;2064311;28;40198;-69
2022/06/07 00:26:21;;;;;;;11.98;8.27;;;;;;;11.24;100.00;101090.34;2064383;28;30567;-69
2022/06/07 00:27:24;;;;;;;9.55;7.50;;;;;;;11.21;100.00;101089.53;2064822;28;22530;-69
2022/06/07 00:28:27;;;;;;;11.02;7.65;;;;;;;11.23;100.00;101093.06;2064753;28;20125;-69
2022/06/07 00:29:30;;;;;;;15.68;8.38;;;;;;;11.22;100.00;101083.28;2072139;28;20108;-69
2022/06/07 00:30:32;;;;;;;11.32;8.30;;;;;;;11.24;100.00;101084.13;2064326;28;20105;-69
2022/06/07 00:31:42;;;;;;;11.18;8.55;;;;;;;11.23;100.00;101090.38;2056480;28;20050;-69
2022/06/07 00:32:44;;;;;;;14.63;7.88;;;;;;;11.23;100.00;101087.69;2064760;28;38998;-67
2022/06/07 00:33:51;;;;;;;12.02;8.05;;;;;;;11.25;100.00;101088.53;2072039;28;31165;-69
2022/06/07 00:34:53;;;;;;;11.38;8.15;;;;;;;11.24;100.00;101089.47;2064163;28;34699;-69
2022/06/07 00:35:57;;;;;;;12.50;8.43;;;;;;;11.22;100.00;101084.16;2064855;28;20830;-69
2022/06/07 00:37:00;;;;;;;11.27;7.80;;;;;;;11.22;100.00;101091.31;2064617;28;29236;-69
2022/06/07 00:38:05;;;;;;;10.25;7.50;;;;;;;11.21;100.00;101090.41;2063675;28;45390;-69
2022/06/07 00:39:08;;;;;;;11.50;7.75;;;;;;;11.25;100.00;101080.50;2065130;28;20149;-69
2022/06/07 00:40:11;;;;;;;10.93;8.30;;;;;;;11.26;100.00;101082.28;2064440;28;32237;-69
2022/06/07 00:41:13;;;;;;;11.98;8.45;;;;;;;11.26;100.00;101087.63;2064329;28;31080;-69
2022/06/07 00:42:17;;;;;;;12.15;8.27;;;;;;;11.24;100.00;101082.31;2064906;28;20891;-69
2022/06/07 00:43:25;;;;;;;10.93;8.50;;;;;;;11.25;100.00;101085.88;2065050;28;27909;-69
2022/06/07 00:44:42;;;;;;;10.30;8.02;;;;;;;11.25;100.00;101078.72;2064899;28;20039;-69
2022/06/07 00:45:43;;;;;;;16.23;9.15;;;;;;;11.27;100.00;101081.38;2072473;28;20042;-69
2022/06/07 00:46:46;;;;;;;15.70;8.50;;;;;;;11.26;100.00;101079.59;2071958;28;25240;-69
2022/06/07 00:47:48;;;;;;;14.68;8.90;;;;;;;11.26;100.00;101083.16;2064578;28;20227;-69
2022/06/07 00:48:50;;;;;;;12.40;8.45;;;;;;;11.27;100.00;101076.00;2071852;28;37660;-69
2022/06/07 00:50:19;;;;;;;10.63;8.20;;;;;;;11.29;100.00;101084.91;2071474;28;32479;-69
2022/06/07 00:51:21;;;;;;;13.05;8.07;;;;;;;11.29;100.00;101079.53;2068292;28;35730;-69
2022/06/07 00:52:27;;;;;;;12.65;8.55;;;;;;;11.31;100.00;101076.81;2064265;28;33089;-69
2022/06/07 00:53:34;;;;;;;9.95;8.27;;;;;;;11.30;100.00;101086.63;2072333;28;20120;-69
2022/06/07 00:54:55;;;;;;;13.57;8.45;;;;;;;11.35;100.00;101082.06;2071892;28;20942;-69
2022/06/07 00:56:14;;;;;;;12.25;8.60;;;;;;;11.34;100.00;101080.31;2072439;28;20181;-69
2022/06/07 00:57:16;;;;;;;9.15;8.18;;;;;;;11.35;100.00;101084.72;2071828;28;28535;-69
2022/06/07 00:58:22;;;;;;;10.00;9.00;;;;;;;11.35;100.00;101071.34;2072131;28;20038;-69
2022/06/07 00:59:26;;;;;;;11.00;8.50;;;;;;;11.36;100.00;101072.19;2071742;28;25338;-69
2022/06/07 01:00:27;;;;;;;11.63;8.82;;;;;;;11.37;100.00;101080.22;2071825;28;20873;-69
2022/06/07 01:01:32;;;;;;;12.45;8.48;;;;;;;11.38;100.00;101076.63;2072048;28;20097;-69
2022/06/07 01:02:37;;;;;;;9.73;8.20;;;;;;;11.38;100.00;101075.75;2064151;28;20047;-69
2022/06/07 01:03:40;;;;;;;10.38;8.70;;;;;;;11.40;100.00;101074.78;2072216;28;20042;-69
2022/06/07 01:04:42;;;;;;;11.15;8.95;;;;;;;11.41;100.00;101070.28;2072015;28;20042;-69
2022/06/07 01:05:44;;;;;;;12.88;9.55;;;;;;;11.42;100.00;101067.59;2064182;28;20058;-69
2022/06/07 01:11:01;;;;;;;12.00;10.00;;;;;;;11.44;100.00;101062.19;2071904;28;20121;-69
2022/06/07 01:12:10;;;;;;;10.25;8.55;;;;;;;11.43;100.00;101066.69;2063282;28;20047;-69
2022/06/07 01:13:19;;;;;;;10.50;9.32;;;;;;;11.45;100.00;101062.16;2064650;28;20050;-69
2022/06/07 01:14:22;;;;;;;11.45;9.35;;;;;;;11.45;100.00;101059.47;2063581;28;20884;-69
2022/06/07 01:15:24;;;;;;;13.20;9.73;;;;;;;11.46;100.00;101063.91;2064035;28;20867;-69
2022/06/07 01:16:28;;;;;;;10.98;9.88;;;;;;;11.46;100.00;101057.66;2063689;28;20054;-69
2022/06/07 01:17:30;;;;;;;11.88;9.55;;;;;;;11.46;100.00;101053.16;2064045;28;20189;-69
2022/06/07 01:18:33;;;;;;;11.15;9.15;;;;;;;11.49;100.00;101056.72;2072053;28;20961;-69
2022/06/07 01:19:37;;;;;;;12.27;9.38;;;;;;;11.48;100.00;101057.63;2063803;28;20924;-69
2022/06/07 01:20:40;;;;;;;11.52;10.02;;;;;;;11.49;100.00;101052.22;2056193;28;20036;-69
2022/06/07 01:21:45;;;;;;;13.40;10.30;;;;;;;11.50;100.00;101048.63;2063706;28;20911;-69
2022/06/07 01:22:47;;;;;;;16.10;11.43;;;;;;;11.52;100.00;101052.16;2071934;28;20100;-69
2022/06/07 01:23:55;;;;;;;12.25;10.32;;;;;;;11.53;100.00;101050.34;2071993;28;20038;-69
2022/06/07 01:25:01;;;;;;;12.68;10.95;;;;;;;11.54;100.00;101044.06;2063938;28;20208;-69
2022/06/07 01:26:03;;;;;;;12.38;10.88;;;;;;;11.53;100.00;101043.19;2056339;28;20035;-69
2022/06/07 01:27:07;;;;;;;13.13;11.23;;;;;;;11.54;100.00;101038.69;2056023;28;20114;-69
2022/06/07 01:28:09;;;;;;;12.68;11.38;;;;;;;11.53;100.00;101035.13;2064510;28;20047;-69
2022/06/07 01:29:13;;;;;;;12.23;11.02;;;;;;;11.54;100.00;101039.59;2063573;28;20117;-69
2022/06/07 01:30:16;;;;;;;12.60;11.35;;;;;;;11.56;100.00;101039.56;2056165;28;20118;-69
2022/06/07 01:31:19;;;;;;;11.95;10.75;;;;;;;11.55;100.00;101037.78;2064284;28;20491;-69
2022/06/07 01:32:24;;;;;;;14.25;11.98;;;;;;;11.56;100.00;101036.88;2071067;28;40019;-69
2022/06/07 01:33:25;;;;;;;13.55;12.13;;;;;;;11.56;100.00;101036.88;2063862;28;20066;-69
2022/06/07 01:34:27;;;;;;;13.98;12.18;;;;;;;11.56;100.00;101031.53;2063936;28;20077;-69
2022/06/07 01:35:32;;;;;;;12.57;11.32;;;;;;;11.56;100.00;101023.47;2063829;28;20086;-69
2022/06/07 01:36:37;;;;;;;14.75;11.95;;;;;;;11.58;100.00;101021.63;2064407;28;20879;-69
2022/06/07 01:37:41;;;;;;;14.70;13.15;;;;;;;11.58;100.00;101029.69;2071884;28;21117;-69
2022/06/07 01:41:53;;;;;;;14.15;12.65;;;;;;;11.59;100.00;101013.53;2071533;28;20264;-69
2022/06/07 01:41:56;;;;;;;13.82;12.55;;;;;;;11.58;100.00;101014.47;2035107;29;20056;-69
2022/06/07 01:43:02;;;;;;;15.00;13.43;;;;;;;11.59;100.00;101018.00;2036865;28;20040;-69
2022/06/07 01:44:09;;;;;;;14.48;13.07;;;;;;;11.60;100.00;101017.09;2063730;28;20900;-69
2022/06/07 01:45:11;;;;;;;14.98;13.57;;;;;;;11.60;100.00;101023.34;2071600;28;20090;-69
2022/06/07 01:46:16;;;;;;;14.98;13.48;;;;;;;11.60;100.00;101025.16;2071806;28;20910;-69
2022/06/07 01:47:30;;;;;;;14.23;12.93;;;;;;;11.62;100.00;101020.63;2063742;28;20051;-69
2022/06/07 01:48:34;;;;;;;16.02;14.32;;;;;;;11.60;100.00;101017.09;2058102;28;20062;-69
2022/06/07 01:49:37;;;;;;;14.73;13.32;;;;;;;11.61;100.00;101021.53;2055475;28;23224;-69
2022/06/07 01:50:39;;;;;;;16.23;14.55;;;;;;;11.59;100.00;101016.22;2064052;28;20113;-69
2022/06/07 01:51:41;;;;;;;16.10;14.50;;;;;;;11.61;100.00;101025.13;2071943;28;21000;-69
2022/06/07 01:52:44;;;;;;;14.75;13.35;;;;;;;11.60;100.00;101017.97;2071481;28;20042;-69
2022/06/07 01:53:54;;;;;;;;;;;;;;;11.60;100.00;101017.09;2064350;28;20190;-69
2022/06/07 01:54:56;;;;;;;15.63;13.73;;;;;;;11.61;100.00;101013.47;2055715;28;27593;-69
2022/06/07 01:56:06;;;;;;;15.85;14.05;;;;;;;11.61;100.00;101013.47;2063807;28;20073;-69
2022/06/07 01:57:11;;;;;;;15.10;13.70;;;;;;;11.60;100.00;101012.59;2063176;28;20193;-69
2022/06/07 01:58:13;;;;;;;18.92;15.25;;;;;;;11.62;100.00;101016.13;2055857;28;20125;-69
2022/06/07 01:59:17;;;;;;;15.35;13.88;;;;;;;11.61;100.00;101013.47;2063365;28;20051;-69
2022/06/07 02:00:19;;;;;;;15.20;13.73;;;;;;;11.62;100.00;101015.25;2071949;28;20841;-69
2022/06/07 02:01:25;;;;;;;16.38;14.77;;;;;;;11.61;100.00;101009.03;2071680;28;20040;-69
2022/06/07 02:02:27;;;;;;;16.48;14.50;;;;;;;11.62;100.00;101009.88;2071695;28;20187;-69
2022/06/07 02:03:32;;;;;;;15.13;13.73;;;;;;;11.61;100.00;101014.38;2063497;28;20039;-69
2022/06/07 02:04:42;;;;;;;15.05;13.65;;;;;;;11.63;100.00;101006.31;2064313;28;20039;-69
2022/06/07 02:05:58;;;;;;;15.55;13.95;;;;;;;11.64;100.00;101010.72;2063137;28;20055;-69
2022/06/07 02:07:00;;;;;;;15.52;13.75;;;;;;;11.64;100.00;101000.00;2065632;28;20908;-69
2022/06/07 02:08:08;;;;;;;16.58;14.13;;;;;;;11.68;100.00;101009.72;2063582;28;20046;-69
2022/06/07 02:09:13;;;;;;;15.13;13.63;;;;;;;11.67;100.00;101007.09;2063832;28;20165;-69
2022/06/07 02:10:15;;;;;;;15.45;13.95;;;;;;;11.68;100.00;101007.03;2071834;28;20127;-69
2022/06/07 02:11:21;;;;;;;15.27;13.77;;;;;;;11.68;100.00;101008.84;2064142;28;20979;-69
2022/06/07 02:12:31;;;;;;;14.73;13.23;;;;;;;11.68;100.00;101004.34;2063649;28;20089;-69
2022/06/07 02:13:34;;;;;;;14.95;13.55;;;;;;;11.68;100.00;100993.63;2055631;28;20121;-69
2022/06/07 02:14:39;;;;;;;15.13;13.63;;;;;;;11.69;100.00;100999.91;2063617;28;20144;-69
2022/06/07 02:15:41;;;;;;;15.18;13.57;;;;;;;11.70;100.00;101001.63;2062996;28;37425;-69
2022/06/07 02:16:46;;;;;;;15.70;14.10;;;;;;;11.71;100.00;100996.22;2063500;28;20191;-69
2022/06/07 02:17:48;;;;;;;14.88;13.27;;;;;;;11.71;100.00;100998.91;2071158;28;20038;-69
2022/06/07 02:19:03;;;;;;;14.90;13.38;;;;;;;11.71;100.00;100998.91;2063730;28;20043;-69
2022/06/07 02:20:10;;;;;;;14.45;13.05;;;;;;;11.72;100.00;101000.69;2062806;28;20078;-69
2022/06/07 02:21:14;;;;;;;14.77;13.27;;;;;;;11.71;100.00;101006.97;2056145;28;20761;-69
2022/06/07 02:22:16;;;;;;;14.55;13.10;;;;;;;11.72;100.00;101011.41;2063576;28;20148;-69
2022/06/07 02:23:18;;;;;;;14.27;12.45;;;;;;;11.72;100.00;101003.38;2054875;28;28866;-70
2022/06/07 02:24:20;;;;;;;14.45;12.98;;;;;;;11.72;100.00;101006.06;2047528;28;20048;-69
2022/06/07 02:25:21;;;;;;;14.65;13.20;;;;;;;11.72;100.00;101000.69;2055578;28;20106;-69
2022/06/07 02:26:38;;;;;;;14.00;12.70;;;;;;;11.74;100.00;101006.88;2063815;28;20040;-69
2022/06/07 02:27:40;;;;;;;14.98;13.48;;;;;;;11.74;100.00;101003.34;2055935;28;36360;-69
2022/06/07 02:28:47;;;;;;;15.20;13.50;;;;;;;11.73;100.00;100996.19;2063459;28;20035;-69
2022/06/07 02:29:54;;;;;;;15.20;13.70;;;;;;;11.73;100.00;100991.72;2054978;28;26317;-69
2022/06/07 02:31:02;;;;;;;14.35;12.77;;;;;;;11.73;100.00;101002.44;2048056;28;20894;-69
2022/06/07 02:32:28;;;;;;;14.40;13.05;;;;;;;11.73;100.00;101002.44;2055544;28;34233;-69
2022/06/07 02:33:33;;;;;;;13.82;12.43;;;;;;;11.72;100.00;100995.31;2059754;28;31839;-69
2022/06/07 02:34:38;;;;;;;14.60;12.95;;;;;;;11.72;100.00;101000.69;2062720;28;34938;-69
2022/06/07 02:35:42;;;;;;;14.82;13.43;;;;;;;11.72;100.00;100995.31;2062668;28;35949;-69
2022/06/07 02:36:47;;;;;;;13.98;12.57;;;;;;;11.73;99.89;100997.06;2055393;28;33057;-69
2022/06/07 02:37:48;;;;;;;13.43;12.20;;;;;;;11.71;99.90;100998.03;2062957;28;20145;-69
2022/06/07 02:38:50;;;;;;;14.75;13.35;;;;;;;11.72;99.86;101006.06;2054616;28;31760;-68
2022/06/07 02:39:54;;;;;;;14.25;12.63;;;;;;;11.72;99.92;100986.38;2055055;28;20170;-69
2022/06/07 02:40:57;;;;;;;15.50;14.00;;;;;;;11.72;100.00;100986.38;2062400;28;38179;-69
2022/06/07 02:42:05;;;;;;;14.32;12.80;;;;;;;11.71;99.81;100996.22;2064616;28;20978;-69
2022/06/07 02:43:07;;;;;;;14.65;13.15;;;;;;;11.72;100.00;100989.06;2054679;28;33300;-69
2022/06/07 02:44:09;;;;;;;14.27;12.88;;;;;;;11.70;100.00;100986.44;2046823;28;33117;-69
2022/06/07 02:45:11;;;;;;;15.05;13.38;;;;;;;11.70;99.98;100989.13;2055190;28;28051;-69
2022/06/07 02:46:12;;;;;;;14.48;12.55;;;;;;;11.69;99.93;100983.81;2055683;28;32007;-69
2022/06/07 02:47:15;;;;;;;14.73;13.23;;;;;;;11.70;100.00;100981.09;2063390;28;20042;-69
2022/06/07 02:48:21;;;;;;;16.23;12.88;;;;;;;11.72;99.66;100983.69;2062991;28;20101;-69
2022/06/07 02:49:23;;;;;;;14.95;13.27;;;;;;;11.71;99.89;100985.50;2063164;28;20816;-69
2022/06/07 02:50:25;;;;;;;14.27;12.77;;;;;;;11.70;99.39;100983.75;2063244;28;20051;-69
2022/06/07 02:51:27;;;;;;;14.00;12.60;;;;;;;11.71;99.62;100982.81;2062950;28;20031;-69
2022/06/07 02:52:33;;;;;;;14.68;13.05;;;;;;;11.72;99.61;100978.31;2063559;28;20181;-69
2022/06/07 02:53:42;;;;;;;14.27;12.77;;;;;;;11.71;100.00;100977.47;2063144;28;20843;-69
2022/06/07 02:54:44;;;;;;;16.33;13.30;;;;;;;11.71;100.00;100985.50;2055519;28;20174;-69
2022/06/07 02:55:49;;;;;;;14.52;12.95;;;;;;;11.71;99.80;100976.59;2055306;28;20043;-69
2022/06/07 02:56:55;;;;;;;14.93;13.02;;;;;;;11.71;99.90;100988.19;2063407;28;20035;-69
2022/06/07 02:57:59;;;;;;;15.20;13.70;;;;;;;11.72;99.80;100983.69;2055066;28;20133;-69
2022/06/07 02:59:02;;;;;;;14.10;12.80;;;;;;;11.71;99.65;100973.91;2047568;28;20079;-69
2022/06/07 03:00:07;;;;;;;15.63;14.15;;;;;;;11.71;99.65;100982.81;2047203;28;20059;-69
2022/06/07 03:01:09;;;;;;;14.88;13.38;;;;;;;11.72;98.99;100981.91;2047769;28;20047;-69
2022/06/07 03:02:15;;;;;;;15.32;13.82;;;;;;;11.71;99.23;100971.22;2055960;28;20039;-69
2022/06/07 03:03:19;;;;;;;16.25;13.13;;;;;;;11.69;99.20;100973.94;2063234;28;20053;-70
2022/06/07 03:04:21;;;;;;;13.88;12.52;;;;;;;11.69;99.54;100973.94;2055737;28;20089;-69
2022/06/07 03:05:23;;;;;;;13.88;12.50;;;;;;;11.68;98.92;100982.91;2047376;28;20073;-70
2022/06/07 03:06:33;;;;;;;14.50;13.05;;;;;;;11.71;99.14;100968.53;2048171;28;20114;-70
2022/06/07 03:07:35;;;;;;;14.65;13.00;;;;;;;11.70;99.06;100974.81;2055601;28;20158;-70
2022/06/07 03:08:39;;;;;;;15.80;13.43;;;;;;;11.70;99.29;100974.81;2062957;28;21022;-69
2022/06/07 03:09:41;;;;;;;14.52;13.13;;;;;;;11.70;98.63;100965.00;2055188;28;20792;-70
2022/06/07 03:10:43;;;;;;;15.00;13.60;;;;;;;11.70;98.22;100970.34;2061856;28;32016;-69
2022/06/07 03:11:47;;;;;;;16.15;13.30;;;;;;;11.70;98.18;100967.66;2071526;28;20030;-69
2022/06/07 03:12:50;;;;;;;15.02;13.50;;;;;;;11.71;98.76;100979.28;2063359;28;20868;-69
2022/06/07 03:13:55;;;;;;;15.10;13.70;;;;;;;11.71;98.39;100963.19;2063655;28;20165;-70
2022/06/07 03:15:02;;;;;;;14.80;13.30;;;;;;;11.71;98.64;100961.38;2063158;28;20062;-69
2022/06/07 03:16:04;;;;;;;14.90;13.25;;;;;;;11.73;98.21;100967.56;2063260;28;20062;-69
2022/06/07 03:17:07;;;;;;;14.15;12.65;;;;;;;11.71;98.02;100960.50;2064195;28;20088;-70
2022/06/07 03:18:11;;;;;;;15.25;13.75;;;;;;;11.71;98.01;100966.72;2071312;28;20034;-69
2022/06/07 03:19:16;;;;;;;14.25;12.90;;;;;;;11.72;98.12;100971.19;2071396;28;20034;-70
2022/06/07 03:20:18;;;;;;;14.93;13.63;;;;;;;11.72;97.75;100967.59;2070882;28;27803;-70
2022/06/07 03:21:20;;;;;;;15.27;13.70;;;;;;;11.72;98.05;100964.91;2071289;28;20896;-69
2022/06/07 03:22:23;;;;;;;13.73;12.52;;;;;;;11.71;98.38;100964.06;2071183;28;20049;-69
2022/06/07 03:23:26;;;;;;;14.38;13.07;;;;;;;11.70;98.75;100967.66;2063008;28;20046;-69
2022/06/07 03:24:35;;;;;;;14.23;12.93;;;;;;;11.71;98.76;100966.72;2055730;28;20173;-69
2022/06/07 03:25:42;;;;;;;14.07;12.68;;;;;;;11.72;98.70;100967.59;2064182;28;20106;-70
2022/06/07 03:26:44;;;;;;;15.40;13.93;;;;;;;11.71;98.15;100965.84;2070990;28;28309;-69
2022/06/07 03:27:50;;;;;;;14.00;12.65;;;;;;;11.71;98.27;100965.84;2064755;28;21011;-69
2022/06/07 03:28:54;;;;;;;15.85;14.18;;;;;;;11.71;98.00;100966.72;2063692;28;20970;-69
2022/06/07 03:30:03;;;;;;;14.05;12.70;;;;;;;11.70;98.45;100970.34;2070730;28;21021;-69
2022/06/07 03:31:14;;;;;;;14.48;13.07;;;;;;;11.70;98.42;100977.50;2071346;28;20235;-70
2022/06/07 03:32:18;;;;;;;14.63;13.32;;;;;;;11.68;98.12;100972.16;2054979;28;20047;-69
2022/06/07 03:33:20;;;;;;;13.90;12.50;;;;;;;11.70;98.80;100970.34;2056817;28;20177;-69
2022/06/07 03:34:23;;;;;;;13.32;12.13;;;;;;;11.70;98.76;100962.31;2071098;28;20043;-69
2022/06/07 03:35:25;;;;;;;15.15;13.65;;;;;;;11.71;97.90;100973.91;2064822;28;21046;-69
2022/06/07 03:36:29;;;;;;;15.25;13.73;;;;;;;11.71;97.78;100964.06;2072760;28;20049;-70
2022/06/07 03:37:32;;;;;;;15.60;13.98;;;;;;;11.73;97.97;100975.63;2064436;28;20050;-69
2022/06/07 03:38:35;;;;;;;13.95;12.65;;;;;;;11.73;97.80;100966.69;2057292;28;20094;-69
2022/06/07 03:39:37;;;;;;;15.77;13.25;;;;;;;11.73;97.88;100964.88;2064408;28;20058;-69
2022/06/07 03:40:45;;;;;;;14.32;12.90;;;;;;;11.73;98.23;100966.69;2072111;28;35457;-69
2022/06/07 03:41:51;;;;;;;14.55;13.15;;;;;;;11.73;98.04;100970.25;2072723;28;20958;-69
2022/06/07 03:42:58;;;;;;;14.95;13.20;;;;;;;11.75;98.21;100971.06;2072051;28;20065;-70
2022/06/07 03:44:03;;;;;;;16.00;13.23;;;;;;;11.74;97.46;100966.66;2065251;28;25612;-69
2022/06/07 03:45:06;;;;;;;13.57;12.27;;;;;;;11.76;97.61;100958.56;2072666;28;20042;-69
2022/06/07 03:46:19;;;;;;;14.55;13.20;;;;;;;11.76;98.03;100964.81;2072501;28;20129;-69
2022/06/07 03:47:21;;;;;;;14.05;12.75;;;;;;;11.76;97.61;100959.44;2072787;28;20049;-69
2022/06/07 03:48:24;;;;;;;14.32;12.88;;;;;;;11.77;97.51;100963.91;2056109;28;20896;-69
2022/06/07 03:49:27;;;;;;;14.82;12.50;;;;;;;11.78;97.96;100970.13;2057044;28;20039;-69
2022/06/07 03:50:33;;;;;;;13.63;12.30;;;;;;;11.79;97.92;100959.38;2072997;28;20061;-69
2022/06/07 03:51:41;;;;;;;13.82;12.52;;;;;;;11.80;97.38;100961.09;2072423;28;20136;-69
2022/06/07 03:52:43;;;;;;;16.67;13.20;;;;;;;11.79;97.64;100956.69;2072589;28;20165;-69
2022/06/07 03:53:45;;;;;;;14.93;13.38;;;;;;;11.80;97.71;100954.88;2064294;28;20094;-69
2022/06/07 03:54:49;;;;;;;14.88;13.43;;;;;;;11.81;97.77;100964.69;2056742;28;20182;-69
2022/06/07 03:55:54;;;;;;;14.38;12.88;;;;;;;11.79;97.11;100954.00;2065115;28;20035;-69
2022/06/07 03:56:59;;;;;;;14.90;13.43;;;;;;;11.82;97.41;100958.38;2064360;28;20170;-69
2022/06/07 03:58:02;;;;;;;14.50;13.10;;;;;;;11.82;97.41;100958.38;2064379;28;20039;-69
2022/06/07 03:59:05;;;;;;;14.77;13.27;;;;;;;11.83;97.04;100955.66;2071974;28;20133;-70
2022/06/07 04:00:08;;;;;;;14.90;13.40;;;;;;;11.84;96.57;100951.16;2064294;28;20344;-69
2022/06/07 04:01:22;;;;;;;14.40;12.95;;;;;;;11.85;96.93;100947.59;2065488;28;20042;-69
2022/06/07 04:02:26;;;;;;;15.07;13.68;;;;;;;11.85;96.72;100950.25;2064364;28;20126;-69
2022/06/07 04:03:31;;;;;;;14.38;13.00;;;;;;;11.86;96.44;100954.69;2064299;28;20942;-69
2022/06/07 04:04:37;;;;;;;15.40;13.70;;;;;;;11.87;97.04;100956.47;2064733;28;20090;-69
2022/06/07 04:05:41;;;;;;;13.82;12.43;;;;;;;11.87;97.21;100950.22;2064197;28;39478;-69
2022/06/07 04:08:15;;;;;;;15.60;13.65;;;;;;;11.88;97.38;100954.66;2064415;28;20047;-69
2022/06/07 04:09:25;;;;;;;14.50;13.20;;;;;;;11.89;97.05;100953.75;2064956;28;20050;-69
2022/06/07 04:10:27;;;;;;;15.05;13.57;;;;;;;11.91;97.20;100941.19;2065686;28;20225;-69
2022/06/07 04:11:30;;;;;;;16.83;13.77;;;;;;;11.90;96.41;100948.38;2064161;28;20047;-70
2022/06/07 04:12:35;;;;;;;16.67;14.63;;;;;;;11.90;96.55;100952.78;2064456;28;20043;-69
2022/06/07 04:13:37;;;;;;;16.02;13.70;;;;;;;11.97;97.09;100958.00;2064381;28;29538;-69
2022/06/07 04:14:45;;;;;;;16.27;14.57;;;;;;;11.94;96.29;100952.72;2056054;28;20043;-69
2022/06/07 04:15:48;;;;;;;15.88;14.27;;;;;;;11.96;96.58;100947.31;2056557;28;20118;-69
2022/06/07 04:16:51;;;;;;;15.23;13.73;;;;;;;11.96;95.85;100947.31;2064183;28;20121;-69
2022/06/07 04:17:59;;;;;;;16.02;14.13;;;;;;;11.96;96.51;100952.69;2064398;28;20039;-69
2022/06/07 04:19:06;;;;;;;14.98;13.57;;;;;;;11.98;96.41;100949.00;2056278;28;20878;-69
2022/06/07 04:20:10;;;;;;;16.38;13.82;;;;;;;11.97;96.73;100957.09;2048511;28;20047;-69
2022/06/07 04:21:13;;;;;;;15.23;13.60;;;;;;;11.97;96.52;100954.41;2056438;28;20126;-69
2022/06/07 04:22:17;;;;;;;15.13;13.57;;;;;;;11.96;96.53;100948.19;2056160;28;20051;-69
2022/06/07 04:23:28;;;;;;;15.23;13.82;;;;;;;11.96;96.63;100953.53;2057519;28;20824;-70
2022/06/07 04:24:32;;;;;;;15.88;14.30;;;;;;;11.97;96.66;100949.03;2063977;28;20027;-69
2022/06/07 04:25:36;;;;;;;15.30;13.80;;;;;;;11.97;95.93;100943.69;2064049;28;20043;-69
2022/06/07 04:26:39;;;;;;;18.58;13.73;;;;;;;11.97;96.53;100954.41;2056161;28;20039;-67
2022/06/07 04:27:43;;;;;;;16.45;14.80;;;;;;;11.99;96.30;100955.28;2048329;28;20044;-69
2022/06/07 04:28:46;;;;;;;16.20;14.40;;;;;;;12.01;95.98;100956.09;2056384;28;20087;-67
2022/06/07 04:29:48;;;;;;;15.45;13.95;;;;;;;12.00;96.38;100951.66;2063916;28;20078;-69
2022/06/07 04:30:50;;;;;;;15.68;14.18;;;;;;;12.01;96.18;100943.56;2064314;28;20079;-69
2022/06/07 04:31:58;;;;;;;17.42;14.55;;;;;;;12.02;96.69;100947.13;2055911;28;20058;-69
2022/06/07 04:33:01;;;;;;;16.13;14.40;;;;;;;12.02;96.26;100947.13;2056390;28;20035;-69
2022/06/07 04:34:04;;;;;;;16.75;15.05;;;;;;;12.04;96.54;100953.31;2064191;28;20937;-70
2022/06/07 04:35:07;;;;;;;15.73;14.20;;;;;;;12.05;96.45;100943.47;2064355;28;20027;-69
2022/06/07 04:36:18;;;;;;;16.40;14.57;;;;;;;12.07;96.21;100947.00;2055931;28;20043;-69
2022/06/07 04:37:25;;;;;;;16.83;14.90;;;;;;;12.08;96.76;100938.00;2058187;28;20936;-69
2022/06/07 04:38:33;;;;;;;;;;;;;;;12.09;96.55;100943.34;2056418;28;20081;-67
2022/06/07 04:39:35;;;;;;;16.70;15.05;;;;;;;12.10;96.34;100947.78;2056126;28;19926;-69
2022/06/07 04:40:44;;;;;;;17.02;15.38;;;;;;;12.10;96.39;100945.09;2063687;28;20994;-69
2022/06/07 04:41:47;;;;;;;17.25;15.52;;;;;;;12.12;96.27;100943.25;2064072;28;20126;-70
2022/06/07 04:42:54;;;;;;;17.20;15.40;;;;;;;12.11;96.02;100949.53;2056355;28;20195;-69
2022/06/07 04:44:03;;;;;;;17.30;15.65;;;;;;;12.10;96.25;100937.06;2056848;28;20040;-69
2022/06/07 04:45:09;;;;;;;21.05;16.38;;;;;;;12.11;96.53;100936.09;2063949;28;20049;-69
2022/06/07 04:46:27;;;;;;;16.80;15.02;;;;;;;12.13;96.37;100934.28;2055039;28;20048;-69
2022/06/07 04:47:34;;;;;;;16.33;14.73;;;;;;;12.17;96.58;100941.31;2057002;28;20050;-69
2022/06/07 04:48:43;;;;;;;17.45;15.68;;;;;;;12.18;95.74;100928.75;2063736;28;21086;-69
2022/06/07 04:49:50;;;;;;;16.50;14.90;;;;;;;12.21;96.57;100934.91;2055621;28;20908;-69
2022/06/07 04:51:05;;;;;;;17.83;16.02;;;;;;;12.21;96.25;100928.69;2056065;28;20047;-69
2022/06/07 04:52:13;;;;;;;17.45;15.57;;;;;;;12.25;95.64;100929.47;2064060;28;20149;-69
2022/06/07 04:53:26;;;;;;;17.75;15.88;;;;;;;12.27;94.93;100932.97;2063435;28;20042;-69
2022/06/07 04:54:28;;;;;;;16.90;15.30;;;;;;;12.29;95.10;100936.50;2064001;28;20145;-69
2022/06/07 04:55:33;;;;;;;16.92;15.13;;;;;;;12.31;95.29;100919.44;2063788;28;20086;-69
2022/06/07 04:56:36;;;;;;;18.75;15.85;;;;;;;12.35;94.94;100936.34;2064246;28;20242;-69
2022/06/07 04:57:38;;;;;;;16.77;14.93;;;;;;;12.35;94.50;100930.97;2063963;28;20121;-69
2022/06/07 04:58:45;;;;;;;17.20;15.40;;;;;;;12.35;94.91;100928.28;2063994;28;20166;-69
2022/06/07 04:59:51;;;;;;;16.95;15.15;;;;;;;12.37;94.57;100923.72;2055764;28;20039;-69
2022/06/07 05:00:53;;;;;;;17.17;15.48;;;;;;;12.38;94.65;100925.47;2056287;28;20138;-69